createdAt,value
2018-08-31T00:02:12.846Z,11.49
2018-08-31T00:05:40.800Z,11.45
2018-08-31T00:08:21.295Z,11.25
2018-08-31T00:10:59.600Z,11.19
2018-08-31T00:13:28.142Z,11.20
2018-08-31T00:15:56.625Z,11.25
2018-08-31T00:18:25.349Z,11.28
2018-08-31T00:20:53.901Z,11.30
2018-08-31T00:23:32.372Z,11.31
2018-08-31T00:26:14.551Z,11.34
2018-08-31T00:29:56.050Z,11.34
2018-08-31T00:33:04.012Z,11.31
2018-08-31T00:36:02.453Z,11.27
2018-08-31T00:38:45.804Z,11.18
2018-08-31T00:42:25.396Z,11.15
2018-08-31T00:45:05.039Z,11.08
2018-08-31T00:47:33.496Z,11.10
2018-08-31T00:50:04.251Z,11.09
2018-08-31T00:52:32.679Z,11.09
2018-08-31T00:55:01.297Z,11.07
2018-08-31T00:57:29.742Z,11.10
2018-08-31T00:59:58.216Z,11.10
2018-08-31T01:02:26.778Z,11.12
2018-08-31T01:04:55.356Z,11.14
2018-08-31T01:07:23.811Z,11.12
2018-08-31T01:09:52.294Z,11.12
2018-08-31T01:12:20.797Z,11.12
2018-08-31T01:14:49.293Z,11.07
2018-08-31T01:18:01.753Z,10.97
2018-08-31T01:20:30.571Z,10.85
2018-08-31T01:22:59.052Z,10.85
2018-08-31T01:25:34.092Z,10.87
2018-08-31T01:28:02.981Z,10.90
2018-08-31T01:30:31.497Z,10.96
2018-08-31T01:32:59.947Z,10.98
2018-08-31T01:35:28.512Z,11.02
2018-08-31T01:37:58.115Z,11.04
2018-08-31T01:40:26.612Z,11.01
2018-08-31T01:42:55.054Z,11.01
2018-08-31T01:45:23.627Z,11.03
2018-08-31T01:47:52.129Z,11.05
2018-08-31T01:50:20.597Z,11.05
2018-08-31T01:52:49.289Z,11.01
2018-08-31T01:55:17.792Z,11.02
2018-08-31T01:57:46.314Z,11.04
2018-08-31T02:00:14.786Z,11.06
2018-08-31T02:02:43.261Z,11.07
2018-08-31T02:05:11.783Z,11.08
2018-08-31T02:07:40.327Z,11.12
2018-08-31T02:10:08.821Z,11.15
2018-08-31T02:12:37.298Z,11.16
2018-08-31T02:15:05.797Z,11.14
2018-08-31T02:17:34.352Z,11.13
2018-08-31T02:20:02.840Z,11.13
2018-08-31T02:22:31.325Z,11.09
2018-08-31T02:24:59.797Z,11.08
2018-08-31T02:27:28.372Z,11.10
2018-08-31T02:29:56.953Z,11.05
2018-08-31T02:33:10.678Z,11.07
2018-08-31T02:35:39.226Z,11.04
2018-08-31T02:38:07.813Z,11.03
2018-08-31T02:40:36.227Z,11.01
2018-08-31T02:43:04.951Z,10.96
2018-08-31T02:45:33.620Z,10.93
2018-08-31T02:48:02.130Z,10.87
2018-08-31T02:50:30.582Z,10.81
2018-08-31T02:52:59.022Z,10.77
2018-08-31T02:55:27.559Z,10.74
2018-08-31T02:57:56.047Z,10.72
2018-08-31T03:00:32.991Z,10.73
2018-08-31T03:03:01.490Z,10.71
2018-08-31T03:05:29.972Z,10.70
2018-08-31T03:07:58.465Z,10.66
2018-08-31T03:10:26.951Z,10.65
2018-08-31T03:12:55.425Z,10.62
2018-08-31T03:15:24.069Z,10.62
2018-08-31T03:17:52.499Z,10.57
2018-08-31T03:20:21.178Z,10.56
2018-08-31T03:22:49.636Z,10.56
2018-08-31T03:25:18.187Z,10.57
2018-08-31T03:27:46.632Z,10.56
2018-08-31T03:30:15.322Z,10.56
2018-08-31T03:32:47.073Z,10.55
2018-08-31T03:35:15.597Z,10.56
2018-08-31T03:37:44.157Z,10.57
2018-08-31T03:40:12.725Z,10.60
2018-08-31T03:42:41.238Z,10.64
2018-08-31T03:45:09.802Z,10.65
2018-08-31T03:47:38.362Z,10.66
2018-08-31T03:50:07.111Z,10.67
2018-08-31T03:52:35.639Z,10.64
2018-08-31T03:55:04.216Z,10.63
2018-08-31T03:57:32.756Z,10.58
2018-08-31T04:00:01.321Z,10.56
2018-08-31T04:02:30.994Z,10.55
2018-08-31T04:04:59.487Z,10.52
2018-08-31T04:07:27.997Z,10.49
2018-08-31T04:09:56.553Z,10.44
2018-08-31T04:12:25.132Z,10.38
2018-08-31T04:14:53.767Z,10.37
2018-08-31T04:17:22.297Z,10.32
2018-08-31T04:19:50.774Z,10.32
2018-08-31T04:22:19.309Z,10.30
2018-08-31T04:24:47.842Z,10.31
2018-08-31T04:27:16.378Z,10.37
2018-08-31T04:29:44.905Z,10.35
2018-08-31T04:32:13.478Z,10.32
2018-08-31T04:34:41.989Z,10.34
2018-08-31T04:37:24.863Z,10.36
2018-08-31T04:39:53.293Z,10.36
2018-08-31T04:42:21.748Z,10.32
2018-08-31T04:44:50.275Z,10.31
2018-08-31T04:47:19.033Z,10.30
2018-08-31T04:49:47.511Z,10.25
2018-08-31T04:52:16.034Z,10.22
2018-08-31T04:54:44.581Z,10.18
2018-08-31T04:57:13.265Z,10.14
2018-08-31T04:59:42.166Z,10.08
2018-08-31T05:02:10.788Z,10.09
2018-08-31T05:04:39.468Z,10.11
2018-08-31T05:07:08.022Z,10.16
2018-08-31T05:09:36.527Z,10.23
2018-08-31T05:12:05.276Z,10.29
2018-08-31T05:14:33.875Z,10.28
2018-08-31T05:17:02.418Z,10.25
2018-08-31T05:19:32.173Z,10.22
2018-08-31T05:22:00.743Z,10.18
2018-08-31T05:24:31.257Z,10.18
2018-08-31T05:26:59.752Z,10.22
2018-08-31T05:29:28.280Z,10.30
2018-08-31T05:31:56.712Z,10.37
2018-08-31T05:34:25.209Z,10.44
2018-08-31T05:36:54.103Z,10.47
2018-08-31T05:39:22.563Z,10.52
2018-08-31T05:41:51.207Z,10.60
2018-08-31T05:44:19.744Z,10.68
2018-08-31T05:46:48.232Z,10.74
2018-08-31T05:49:17.027Z,10.82
2018-08-31T05:51:45.660Z,10.90
2018-08-31T05:54:14.200Z,10.94
2018-08-31T05:56:42.862Z,10.96
2018-08-31T05:59:11.382Z,11.02
2018-08-31T06:01:39.845Z,11.12
2018-08-31T06:04:08.511Z,11.19
2018-08-31T06:06:40.231Z,11.28
2018-08-31T06:09:09.792Z,11.36
2018-08-31T06:11:38.479Z,11.46
2018-08-31T06:14:07.305Z,11.58
2018-08-31T06:16:37.066Z,11.67
2018-08-31T06:19:05.760Z,11.77
2018-08-31T06:21:34.391Z,11.89
2018-08-31T06:24:02.855Z,12.01
2018-08-31T06:26:31.605Z,12.10
2018-08-31T06:29:00.091Z,12.18
2018-08-31T06:31:28.609Z,12.29
2018-08-31T06:33:57.109Z,12.38
2018-08-31T06:36:25.526Z,12.44
2018-08-31T06:38:54.952Z,12.50
2018-08-31T06:41:23.406Z,12.57
2018-08-31T06:43:51.918Z,12.66
2018-08-31T06:46:20.396Z,12.81
2018-08-31T06:48:48.979Z,12.98
2018-08-31T06:51:17.632Z,13.16
2018-08-31T06:53:46.147Z,13.31
2018-08-31T06:56:14.718Z,13.40
2018-08-31T06:58:43.306Z,13.51
2018-08-31T07:01:11.792Z,13.57
2018-08-31T07:03:40.541Z,13.66
2018-08-31T07:06:09.112Z,13.72
2018-08-31T07:08:37.755Z,13.77
2018-08-31T07:11:06.281Z,13.86
2018-08-31T07:13:34.828Z,13.98
2018-08-31T07:16:03.680Z,14.05
2018-08-31T07:18:32.142Z,14.18
2018-08-31T07:21:00.680Z,14.29
2018-08-31T07:23:29.158Z,14.34
2018-08-31T07:25:57.625Z,14.43
2018-08-31T07:28:31.344Z,14.51
2018-08-31T07:30:59.806Z,14.60
2018-08-31T07:33:28.351Z,14.72
2018-08-31T07:35:56.889Z,14.80
2018-08-31T07:38:25.473Z,14.90
2018-08-31T07:40:54.241Z,15.04
2018-08-31T07:43:22.709Z,15.17
2018-08-31T07:45:51.205Z,15.25
2018-08-31T07:48:19.716Z,15.34
2018-08-31T07:50:48.292Z,15.38
2018-08-31T07:53:17.278Z,15.43
2018-08-31T07:55:45.865Z,15.49
2018-08-31T07:58:14.396Z,15.63
2018-08-31T08:00:42.939Z,15.75
2018-08-31T08:03:11.388Z,15.84
2018-08-31T08:06:03.642Z,15.95
2018-08-31T08:08:32.199Z,16.10
2018-08-31T08:11:00.727Z,16.25
2018-08-31T08:13:29.358Z,16.30
2018-08-31T08:15:57.898Z,16.36
2018-08-31T08:18:26.373Z,16.44
2018-08-31T08:20:54.947Z,16.61
2018-08-31T08:23:23.583Z,16.70
2018-08-31T08:25:52.021Z,16.80
2018-08-31T08:28:20.572Z,16.90
2018-08-31T08:30:49.088Z,16.98
2018-08-31T08:33:17.535Z,16.96
2018-08-31T08:35:46.197Z,16.97
2018-08-31T08:38:14.778Z,16.94
2018-08-31T08:40:43.370Z,16.93
2018-08-31T08:43:12.039Z,16.95
2018-08-31T08:45:40.610Z,16.95
2018-08-31T08:48:09.202Z,17.07
2018-08-31T08:50:37.765Z,17.23
2018-08-31T08:53:06.218Z,17.35
2018-08-31T08:55:34.755Z,17.39
2018-08-31T08:58:04.269Z,17.48
2018-08-31T09:00:32.735Z,17.50
2018-08-31T09:03:01.314Z,17.61
2018-08-31T09:05:30.133Z,17.64
2018-08-31T09:07:58.674Z,17.67
2018-08-31T09:10:27.868Z,17.70
2018-08-31T09:12:56.411Z,17.72
2018-08-31T09:15:24.954Z,17.81
2018-08-31T09:17:53.942Z,17.85
2018-08-31T09:20:22.781Z,18.00
2018-08-31T09:22:51.415Z,18.06
2018-08-31T09:25:20.297Z,18.08
2018-08-31T09:27:48.766Z,18.15
2018-08-31T09:30:22.381Z,18.27
2018-08-31T09:32:50.873Z,18.32
2018-08-31T09:35:19.369Z,18.41
2018-08-31T09:37:48.076Z,18.49
2018-08-31T09:40:16.713Z,18.47
2018-08-31T09:42:45.202Z,18.41
2018-08-31T09:45:13.702Z,18.42
2018-08-31T09:47:42.270Z,18.51
2018-08-31T09:50:10.857Z,18.63
2018-08-31T09:52:39.348Z,18.72
2018-08-31T09:55:07.902Z,18.62
2018-08-31T09:57:39.493Z,18.53
2018-08-31T10:00:08.681Z,18.44
2018-08-31T10:02:38.033Z,18.53
2018-08-31T10:05:07.876Z,18.65
2018-08-31T10:07:36.458Z,18.65
2018-08-31T10:10:05.094Z,18.77
2018-08-31T10:12:33.695Z,18.82
2018-08-31T10:15:02.239Z,18.88
2018-08-31T10:17:31.153Z,18.97
2018-08-31T10:19:59.593Z,19.08
2018-08-31T10:22:28.105Z,19.19
2018-08-31T10:24:56.788Z,19.28
2018-08-31T10:27:25.260Z,19.28
2018-08-31T10:29:53.820Z,19.27
2018-08-31T10:32:22.313Z,19.22
2018-08-31T10:34:50.777Z,19.11
2018-08-31T10:37:19.283Z,19.00
2018-08-31T10:39:47.844Z,18.98
2018-08-31T10:42:20.131Z,19.01
2018-08-31T10:44:48.650Z,19.13
2018-08-31T10:47:17.177Z,19.19
2018-08-31T10:49:45.673Z,19.21
2018-08-31T10:52:14.201Z,19.38
2018-08-31T10:54:42.710Z,19.58
2018-08-31T10:57:11.155Z,19.98
2018-08-31T10:59:39.735Z,20.19
2018-08-31T11:02:08.183Z,20.13
2018-08-31T11:04:36.662Z,20.23
2018-08-31T11:07:05.138Z,20.15
2018-08-31T11:09:33.625Z,19.76
2018-08-31T11:12:02.114Z,19.32
2018-08-31T11:14:55.180Z,19.06
2018-08-31T11:17:23.749Z,18.78
2018-08-31T11:19:52.245Z,18.67
2018-08-31T11:22:42.124Z,18.60
2018-08-31T11:25:10.703Z,18.55
2018-08-31T11:27:39.262Z,18.57
2018-08-31T11:30:09.143Z,18.63
2018-08-31T11:32:38.039Z,18.74
2018-08-31T11:35:06.763Z,18.86
2018-08-31T11:38:02.863Z,18.97
2018-08-31T11:40:31.395Z,19.52
2018-08-31T11:43:00.036Z,20.04
2018-08-31T11:45:28.558Z,20.16
2018-08-31T11:47:57.074Z,20.42
2018-08-31T11:50:25.726Z,20.51
2018-08-31T11:52:54.238Z,20.27
2018-08-31T11:55:22.954Z,20.06
2018-08-31T11:57:55.571Z,19.91
2018-08-31T12:00:24.165Z,19.80
2018-08-31T12:02:52.633Z,19.66
2018-08-31T12:05:21.096Z,19.64
2018-08-31T12:07:49.710Z,19.57
2018-08-31T12:10:18.174Z,19.62
2018-08-31T12:12:46.662Z,19.74
2018-08-31T12:15:15.160Z,19.80
2018-08-31T12:17:43.910Z,19.89
2018-08-31T12:20:12.381Z,19.99
2018-08-31T12:22:41.912Z,20.13
2018-08-31T12:25:10.407Z,20.22
2018-08-31T12:27:39.741Z,20.28
2018-08-31T12:30:08.425Z,20.44
2018-08-31T12:32:36.843Z,20.60
2018-08-31T12:35:05.458Z,21.08
2018-08-31T12:37:33.919Z,21.52
2018-08-31T12:40:02.524Z,21.98
2018-08-31T12:42:31.005Z,22.42
2018-08-31T12:44:59.627Z,22.59
2018-08-31T12:47:28.183Z,22.55
2018-08-31T12:49:56.746Z,22.77
2018-08-31T12:52:25.300Z,23.06
2018-08-31T12:54:53.758Z,22.93
2018-08-31T12:57:22.304Z,22.39
2018-08-31T12:59:56.043Z,22.13
2018-08-31T13:02:24.452Z,21.89
2018-08-31T13:04:52.996Z,21.48
2018-08-31T13:07:21.588Z,20.96
2018-08-31T13:09:50.062Z,20.56
2018-08-31T13:12:18.628Z,20.19
2018-08-31T13:14:47.107Z,20.07
2018-08-31T13:17:15.704Z,19.94
2018-08-31T13:19:44.319Z,19.75
2018-08-31T13:22:13.011Z,19.70
2018-08-31T13:24:41.444Z,19.73
2018-08-31T13:27:10.109Z,19.80
2018-08-31T13:29:38.604Z,19.80
2018-08-31T13:32:07.189Z,19.80
2018-08-31T13:34:35.759Z,19.78
2018-08-31T13:37:04.380Z,19.76
2018-08-31T13:39:34.180Z,19.78
2018-08-31T13:42:02.895Z,19.84
2018-08-31T13:44:31.457Z,19.85
2018-08-31T13:47:00.148Z,19.83
2018-08-31T13:49:28.708Z,19.85
2018-08-31T13:51:57.381Z,19.76
2018-08-31T13:54:25.881Z,19.77
2018-08-31T13:56:54.350Z,19.88
2018-08-31T13:59:22.834Z,20.10
2018-08-31T14:01:51.338Z,20.66
2018-08-31T14:04:35.292Z,21.33
2018-08-31T14:07:23.476Z,21.86
2018-08-31T14:09:52.005Z,22.14
2018-08-31T14:12:20.592Z,22.24
2018-08-31T14:14:49.060Z,22.37
2018-08-31T14:17:44.703Z,22.50
2018-08-31T14:20:13.277Z,22.44
2018-08-31T14:22:41.876Z,22.47
2018-08-31T14:25:10.437Z,22.65
2018-08-31T14:27:39.005Z,22.68
2018-08-31T14:30:07.937Z,22.54
2018-08-31T14:32:36.585Z,22.49
2018-08-31T14:35:05.075Z,22.41
2018-08-31T14:37:33.658Z,22.17
2018-08-31T14:40:02.125Z,22.08
2018-08-31T14:42:31.232Z,22.22
2018-08-31T14:44:59.817Z,22.35
2018-08-31T14:47:28.344Z,22.07
2018-08-31T14:49:56.972Z,22.20
2018-08-31T14:52:25.497Z,22.48
2018-08-31T14:54:53.965Z,22.53
2018-08-31T14:57:22.390Z,22.77
2018-08-31T14:59:50.928Z,23.06
2018-08-31T15:02:19.500Z,23.36
2018-08-31T15:04:51.228Z,23.43
2018-08-31T15:07:19.762Z,23.03
2018-08-31T15:09:48.353Z,23.03
2018-08-31T15:12:16.916Z,23.16
2018-08-31T15:14:45.402Z,23.35
2018-08-31T15:17:13.965Z,23.35
2018-08-31T15:19:42.436Z,23.14
2018-08-31T15:22:11.046Z,22.92
2018-08-31T15:24:39.480Z,22.60
2018-08-31T15:27:07.976Z,22.20
2018-08-31T15:29:36.567Z,21.75
2018-08-31T15:32:05.377Z,21.41
2018-08-31T15:34:34.027Z,21.14
2018-08-31T15:37:02.540Z,20.83
2018-08-31T15:39:31.053Z,20.59
2018-08-31T15:41:59.592Z,20.45
2018-08-31T15:44:28.094Z,20.32
2018-08-31T15:46:57.187Z,20.17
2018-08-31T15:49:25.651Z,20.10
2018-08-31T15:51:54.142Z,20.15
2018-08-31T15:54:22.739Z,20.45
2018-08-31T15:56:51.301Z,20.89
2018-08-31T15:59:19.787Z,21.11
2018-08-31T16:01:49.064Z,21.39
2018-08-31T16:04:17.593Z,21.71
2018-08-31T16:06:46.020Z,21.86
2018-08-31T16:09:14.521Z,21.99
2018-08-31T16:11:43.115Z,22.09
2018-08-31T16:14:11.576Z,22.12
2018-08-31T16:16:40.175Z,22.16
2018-08-31T16:19:08.670Z,22.09
2018-08-31T16:25:02.179Z,22.20
2018-08-31T16:27:30.761Z,22.11
2018-08-31T16:29:59.288Z,21.96
2018-08-31T16:32:27.790Z,21.74
2018-08-31T16:34:56.388Z,21.54
2018-08-31T16:37:24.861Z,21.16
2018-08-31T16:39:53.503Z,20.78
2018-08-31T16:42:21.955Z,20.49
2018-08-31T16:44:50.505Z,20.27
2018-08-31T16:47:19.124Z,20.09
2018-08-31T16:49:47.665Z,19.99
2018-08-31T16:52:17.234Z,19.89
2018-08-31T16:54:45.779Z,19.72
2018-08-31T16:57:14.353Z,19.60
2018-08-31T16:59:42.814Z,19.62
2018-08-31T17:02:11.474Z,19.57
2018-08-31T17:04:39.901Z,19.46
2018-08-31T17:07:08.384Z,19.33
2018-08-31T17:09:36.864Z,19.18
2018-08-31T17:12:05.614Z,19.05
2018-08-31T17:14:34.148Z,18.98
2018-08-31T17:17:02.701Z,18.90
2018-08-31T17:19:31.192Z,18.82
2018-08-31T17:21:59.809Z,18.71
2018-08-31T17:24:28.567Z,18.63
2018-08-31T17:27:02.331Z,18.53
2018-08-31T17:29:40.893Z,18.43
2018-08-31T17:32:14.665Z,18.35
2018-08-31T17:34:48.342Z,18.26
2018-08-31T17:37:22.191Z,18.15
2018-08-31T17:39:50.724Z,18.07
2018-08-31T17:42:19.305Z,17.98
2018-08-31T17:44:47.939Z,17.87
2018-08-31T17:47:16.487Z,17.74
2018-08-31T17:49:45.045Z,17.63
2018-08-31T17:52:13.862Z,17.54
2018-08-31T17:54:42.474Z,17.45
2018-08-31T17:57:11.048Z,17.39
2018-08-31T17:59:39.721Z,17.32
2018-08-31T18:02:08.411Z,17.28
2018-08-31T18:04:37.149Z,17.25
2018-08-31T18:07:05.961Z,17.20
2018-08-31T18:09:34.485Z,17.11
2018-08-31T18:12:03.158Z,17.04
2018-08-31T18:14:31.707Z,16.96
2018-08-31T18:17:00.283Z,16.85
2018-08-31T18:19:28.768Z,16.78
2018-08-31T18:21:57.365Z,16.70
2018-08-31T18:24:26.667Z,16.62
2018-08-31T18:26:55.138Z,16.54
2018-08-31T18:29:24.893Z,16.48
2018-08-31T18:31:53.523Z,16.46
2018-08-31T18:34:22.096Z,16.46
2018-08-31T18:36:50.893Z,16.49
2018-08-31T18:39:19.482Z,16.46
2018-08-31T18:41:48.078Z,16.41
2018-08-31T18:44:16.706Z,16.33
2018-08-31T18:46:45.422Z,16.27
2018-08-31T18:49:13.927Z,16.22
2018-08-31T18:51:42.400Z,16.15
2018-08-31T18:54:11.116Z,16.10
2018-08-31T18:56:39.721Z,16.02
2018-08-31T18:59:08.320Z,15.94
2018-08-31T19:01:37.009Z,15.88
2018-08-31T19:04:05.550Z,15.85
2018-08-31T19:06:34.218Z,15.79
2018-08-31T19:09:02.886Z,15.75
2018-08-31T19:11:31.360Z,15.57
2018-08-31T19:14:00.145Z,15.48
2018-08-31T19:16:29.215Z,15.44
2018-08-31T19:18:57.787Z,15.33
2018-08-31T19:21:26.283Z,15.17
2018-08-31T19:23:54.861Z,15.02
2018-08-31T19:26:23.377Z,14.85
2018-08-31T19:28:51.842Z,14.70
2018-08-31T19:31:20.464Z,14.55
2018-08-31T19:33:49.041Z,14.46
2018-08-31T19:36:17.571Z,14.37
2018-08-31T19:39:12.271Z,14.32
2018-08-31T19:41:41.047Z,14.15
2018-08-31T19:44:09.809Z,14.06
2018-08-31T19:46:38.643Z,13.99
2018-08-31T19:49:07.336Z,13.91
2018-08-31T19:51:35.943Z,13.82
2018-08-31T19:57:53.263Z,13.68
2018-08-31T20:00:21.942Z,13.50
2018-08-31T20:02:51.122Z,13.47
2018-08-31T20:05:19.689Z,13.41
2018-08-31T20:07:48.316Z,13.35
2018-08-31T20:10:16.872Z,13.28
2018-08-31T20:12:46.183Z,13.24
2018-08-31T20:15:14.892Z,13.16
2018-08-31T20:17:43.765Z,13.13
2018-08-31T20:20:12.300Z,13.07
2018-08-31T20:22:40.869Z,13.00
2018-08-31T20:25:16.810Z,12.96
2018-08-31T20:27:45.478Z,12.81
2018-08-31T20:30:13.955Z,12.72
2018-08-31T20:32:42.742Z,12.70
2018-08-31T20:35:14.536Z,12.72
2018-08-31T20:37:43.038Z,12.70
2018-08-31T20:40:11.670Z,12.69
2018-08-31T20:43:21.924Z,12.64
2018-08-31T20:45:50.508Z,12.56
2018-08-31T20:48:19.108Z,12.49
2018-08-31T20:50:47.707Z,12.48
2018-08-31T20:53:16.326Z,12.48
2018-08-31T20:55:44.859Z,12.45
2018-08-31T20:58:13.480Z,12.44
2018-08-31T21:00:41.989Z,12.45
2018-08-31T21:03:11.440Z,12.38
2018-08-31T21:05:40.008Z,12.28
2018-08-31T21:08:08.648Z,12.21
2018-08-31T21:10:37.164Z,12.11
2018-08-31T21:13:05.670Z,12.12
2018-08-31T21:15:34.221Z,12.17
2018-08-31T21:18:02.800Z,12.21
2018-08-31T21:20:31.793Z,12.25
2018-08-31T21:23:00.473Z,12.31
2018-08-31T21:25:29.066Z,12.31
2018-08-31T21:27:57.556Z,12.29
2018-08-31T21:30:26.249Z,12.30
2018-08-31T21:32:54.954Z,12.26
2018-08-31T21:35:23.506Z,12.26
2018-08-31T21:37:52.185Z,12.27
2018-08-31T21:40:20.855Z,12.30
2018-08-31T21:42:49.361Z,12.33
2018-08-31T21:45:18.410Z,12.35
2018-08-31T21:47:46.866Z,12.35
2018-08-31T21:50:15.393Z,12.33
2018-08-31T21:52:44.191Z,12.32
2018-08-31T21:55:12.823Z,12.30
2018-08-31T21:57:41.781Z,12.27
2018-08-31T22:00:14.409Z,12.25
2018-08-31T22:02:43.035Z,12.24
2018-08-31T22:05:11.615Z,12.23
2018-08-31T22:07:40.298Z,12.16
2018-08-31T22:10:09.060Z,12.14
2018-08-31T22:12:37.718Z,12.10
2018-08-31T22:15:11.245Z,12.08
2018-08-31T22:17:40.184Z,12.06
2018-08-31T22:20:08.868Z,12.06
2018-08-31T22:22:37.606Z,12.01
2018-08-31T22:25:10.859Z,12.00
2018-08-31T22:27:39.359Z,12.02
2018-08-31T22:30:07.844Z,11.99
2018-08-31T22:32:44.941Z,11.96
2018-08-31T22:35:13.600Z,11.90
2018-08-31T22:37:42.244Z,11.88
2018-08-31T22:40:10.916Z,11.80
2018-08-31T22:42:39.480Z,11.65
2018-08-31T22:45:12.926Z,11.51
2018-08-31T22:47:42.350Z,11.46
2018-08-31T22:50:11.146Z,11.40
2018-08-31T22:52:39.936Z,11.39
2018-08-31T22:55:08.603Z,11.40
2018-08-31T22:57:37.082Z,11.40
2018-08-31T23:00:05.836Z,11.41
2018-08-31T23:02:34.356Z,11.36
2018-08-31T23:05:03.063Z,11.34
2018-08-31T23:07:36.835Z,11.32
2018-08-31T23:10:05.781Z,11.30
2018-08-31T23:12:57.181Z,11.30
2018-08-31T23:19:13.709Z,11.30
2018-08-31T23:21:42.329Z,11.28
2018-08-31T23:24:10.786Z,11.31
2018-08-31T23:26:39.325Z,11.30
2018-08-31T23:29:07.823Z,11.31
2018-08-31T23:31:36.339Z,11.31
2018-08-31T23:34:04.814Z,11.30
2018-08-31T23:40:07.729Z,11.22
2018-08-31T23:42:36.369Z,11.18
2018-08-31T23:45:04.935Z,11.06
2018-08-31T23:47:34.612Z,10.96
2018-08-31T23:50:03.196Z,10.95
2018-08-31T23:52:31.750Z,10.95
2018-08-31T23:55:00.220Z,10.95
2018-08-31T23:57:28.707Z,10.95
2018-08-31T23:59:57.287Z,10.90
